createdAt,value
2022-10-14T00:01:09.283Z,100935.66
2022-10-14T00:03:37.113Z,100946.34
2022-10-14T00:06:06.400Z,100939.28
2022-10-14T00:08:33.085Z,100939.34
2022-10-14T00:11:12.532Z,100932.22
2022-10-14T00:13:39.803Z,100932.19
2022-10-14T00:16:23.132Z,100926.81
2022-10-14T00:18:49.719Z,100934.75
2022-10-14T00:21:16.597Z,100926.72
2022-10-14T00:23:43.944Z,100926.75
2022-10-14T00:26:25.912Z,100924.13
2022-10-14T00:28:53.331Z,100932.13
2022-10-14T00:31:21.544Z,100929.53
2022-10-14T00:33:50.907Z,100930.38
2022-10-14T00:36:22.891Z,100927.88
2022-10-14T00:38:50.794Z,100933.09
2022-10-14T00:41:26.307Z,100935.69
2022-10-14T00:44:04.021Z,100933.81
2022-10-14T00:46:59.184Z,100939.09
2022-10-14T00:49:33.683Z,100937.47
2022-10-14T00:52:06.663Z,100928.56
2022-10-14T00:54:36.786Z,100932.09
2022-10-14T00:57:08.915Z,100930.47
2022-10-14T00:59:35.634Z,100930.38
2022-10-14T01:02:04.087Z,100930.31
2022-10-14T01:04:30.860Z,100917.00
2022-10-14T01:07:17.621Z,100924.91
2022-10-14T01:09:55.194Z,100924.16
2022-10-14T01:12:45.365Z,100928.56
2022-10-14T01:15:29.359Z,100928.56
2022-10-14T01:18:11.488Z,100918.81
2022-10-14T01:20:49.158Z,100915.19
2022-10-14T01:23:41.645Z,100919.44
2022-10-14T01:26:29.375Z,100915.13
2022-10-14T01:29:18.244Z,100911.59
2022-10-14T01:31:52.373Z,100905.41
2022-10-14T01:34:25.855Z,100896.47
2022-10-14T01:37:00.271Z,100896.63
2022-10-14T01:39:31.623Z,100890.41
2022-10-14T01:42:20.367Z,100886.84
2022-10-14T01:44:51.167Z,100877.13
2022-10-14T01:47:20.689Z,100876.25
2022-10-14T01:49:57.983Z,100876.97
2022-10-14T01:52:33.276Z,100872.59
2022-10-14T01:55:04.219Z,100865.56
2022-10-14T01:57:33.427Z,100867.13
2022-10-14T02:00:01.114Z,100866.22
2022-10-14T02:02:27.710Z,100872.44
2022-10-14T02:04:54.334Z,100864.47
2022-10-14T02:07:30.611Z,100867.16
2022-10-14T02:10:05.854Z,100859.13
2022-10-14T02:12:47.659Z,100858.38
2022-10-14T02:15:32.583Z,100863.53
2022-10-14T02:18:08.812Z,100855.50
2022-10-14T02:20:42.440Z,100856.56
2022-10-14T02:23:15.586Z,100860.09
2022-10-14T02:25:45.088Z,100855.78
2022-10-14T02:28:16.234Z,100856.56
2022-10-14T02:30:47.467Z,100854.78
2022-10-14T02:33:21.170Z,100856.72
2022-10-14T02:35:49.126Z,100854.09
2022-10-14T02:38:16.204Z,100858.56
2022-10-14T02:40:46.125Z,100843.50
2022-10-14T02:43:12.962Z,100845.28
2022-10-14T02:45:51.433Z,100833.75
2022-10-14T02:48:19.575Z,100829.25
2022-10-14T02:50:54.267Z,100819.47
2022-10-14T02:53:23.711Z,100820.41
2022-10-14T02:55:50.582Z,100813.31
2022-10-14T02:58:19.134Z,100815.09
2022-10-14T03:00:45.762Z,100808.84
2022-10-14T03:03:13.398Z,100809.69
2022-10-14T03:05:43.086Z,100814.19
2022-10-14T03:08:31.775Z,100814.22
2022-10-14T03:10:59.717Z,100811.59
2022-10-14T03:13:27.773Z,100807.19
2022-10-14T03:15:54.971Z,100805.28
2022-10-14T03:18:21.900Z,100810.53
2022-10-14T03:20:52.588Z,100802.69
2022-10-14T03:23:24.248Z,100798.28
2022-10-14T03:25:53.539Z,100793.88
2022-10-14T03:28:28.202Z,100799.19
2022-10-14T03:31:02.713Z,100797.34
2022-10-14T03:33:50.612Z,100803.53
2022-10-14T03:36:18.418Z,100792.84
2022-10-14T03:38:49.669Z,100798.00
2022-10-14T03:41:30.025Z,100792.00
2022-10-14T03:43:56.911Z,100791.16
2022-10-14T03:46:23.735Z,100788.47
2022-10-14T03:48:51.452Z,100795.56
2022-10-14T03:51:18.493Z,100793.75
2022-10-14T03:53:46.735Z,100794.53
2022-10-14T03:56:17.485Z,100791.13
2022-10-14T03:58:44.890Z,100786.56
2022-10-14T04:01:16.396Z,100783.88
2022-10-14T04:04:16.852Z,100785.63
2022-10-14T04:06:45.971Z,100791.94
2022-10-14T04:09:16.126Z,100792.81
2022-10-14T04:11:43.310Z,100794.69
2022-10-14T04:14:30.869Z,100792.91
2022-10-14T04:16:58.342Z,100789.31
2022-10-14T04:19:24.945Z,100790.25
2022-10-14T04:21:56.828Z,100788.47
2022-10-14T04:24:26.406Z,100784.84
2022-10-14T04:27:02.901Z,100782.31
2022-10-14T04:29:42.964Z,100785.03
2022-10-14T04:32:21.874Z,100773.44
2022-10-14T04:34:48.855Z,100782.31
2022-10-14T04:37:18.741Z,100776.97
2022-10-14T04:40:01.112Z,100781.41
2022-10-14T04:42:30.142Z,100779.59
2022-10-14T04:45:02.009Z,100784.03
2022-10-14T04:47:48.634Z,100778.69
2022-10-14T04:50:19.889Z,100766.31
2022-10-14T04:53:04.979Z,100771.69
2022-10-14T04:55:32.313Z,100760.22
2022-10-14T04:57:59.329Z,100761.09
2022-10-14T05:00:31.135Z,100763.66
2022-10-14T05:03:03.540Z,100758.38
2022-10-14T05:05:34.841Z,100760.16
2022-10-14T05:08:04.367Z,100752.22
2022-10-14T05:10:37.978Z,100754.94
2022-10-14T05:13:09.871Z,100740.72
2022-10-14T05:15:47.720Z,100746.06
2022-10-14T05:18:15.317Z,100743.34
2022-10-14T05:21:02.257Z,100734.53
2022-10-14T05:23:49.139Z,100736.31
2022-10-14T05:26:16.155Z,100734.50
2022-10-14T05:28:42.805Z,100730.06
2022-10-14T05:31:09.562Z,100733.63
2022-10-14T05:33:45.451Z,100728.38
2022-10-14T05:36:12.419Z,100722.03
2022-10-14T05:38:39.317Z,100730.00
2022-10-14T05:41:05.996Z,100725.59
2022-10-14T05:43:33.524Z,100729.09
2022-10-14T05:46:03.442Z,100733.53
2022-10-14T05:48:35.492Z,100730.88
2022-10-14T05:51:03.709Z,100722.03
2022-10-14T05:53:34.205Z,100720.22
2022-10-14T05:56:08.361Z,100715.72
2022-10-14T05:58:37.470Z,100713.19
2022-10-14T06:01:07.188Z,100709.59
2022-10-14T06:03:34.223Z,100707.88
2022-10-14T06:06:01.328Z,100702.56
2022-10-14T06:08:29.910Z,100695.44
2022-10-14T06:10:56.691Z,100703.44
2022-10-14T06:13:23.815Z,100702.53
2022-10-14T06:15:52.421Z,100698.09
2022-10-14T06:18:19.053Z,100703.47
2022-10-14T06:20:52.161Z,100696.44
2022-10-14T06:23:18.830Z,100692.00
2022-10-14T06:25:45.471Z,100690.19
2022-10-14T06:28:12.070Z,100694.59
2022-10-14T06:30:38.662Z,100692.88
2022-10-14T06:33:05.358Z,100692.00
2022-10-14T06:35:31.968Z,100694.63
2022-10-14T06:37:58.679Z,100702.66
2022-10-14T06:40:25.349Z,100699.09
2022-10-14T06:42:53.568Z,100698.22
2022-10-14T06:45:20.158Z,100689.34
2022-10-14T06:47:46.934Z,100695.53
2022-10-14T06:50:13.529Z,100693.75
2022-10-14T06:52:40.179Z,100686.69
2022-10-14T06:55:07.277Z,100687.59
2022-10-14T06:57:33.847Z,100682.28
2022-10-14T07:00:00.494Z,100681.38
2022-10-14T07:02:27.137Z,100675.19
2022-10-14T07:04:53.722Z,100678.75
2022-10-14T07:07:20.724Z,100675.19
2022-10-14T07:09:47.383Z,100680.50
2022-10-14T07:12:14.239Z,100685.00
2022-10-14T07:14:40.961Z,100684.94
2022-10-14T07:17:08.662Z,100673.41
2022-10-14T07:19:35.509Z,100668.09
2022-10-14T07:22:02.100Z,100665.50
2022-10-14T07:24:28.687Z,100666.38
2022-10-14T07:26:55.343Z,100667.25
2022-10-14T07:29:22.049Z,100662.81
2022-10-14T07:31:48.624Z,100670.81
2022-10-14T07:34:15.261Z,100662.81
2022-10-14T07:36:42.153Z,100669.00
2022-10-14T07:39:09.481Z,100661.03
2022-10-14T07:41:36.117Z,100667.25
2022-10-14T07:44:09.390Z,100669.00
2022-10-14T07:46:38.842Z,100675.22
2022-10-14T07:49:08.084Z,100681.44
2022-10-14T07:51:35.089Z,100679.66
2022-10-14T07:54:03.678Z,100680.56
2022-10-14T07:56:30.280Z,100681.41
2022-10-14T07:58:58.339Z,100693.88
2022-10-14T08:01:25.084Z,100692.97
2022-10-14T08:03:52.278Z,100685.88
2022-10-14T08:06:18.982Z,100677.00
2022-10-14T08:08:45.648Z,100671.69
2022-10-14T08:11:19.543Z,100663.72
2022-10-14T08:13:46.958Z,100652.13
2022-10-14T08:16:14.551Z,100657.44
2022-10-14T08:18:41.211Z,100653.00
2022-10-14T08:21:08.112Z,100653.00
2022-10-14T08:23:34.776Z,100645.06
2022-10-14T08:26:01.438Z,100645.94
2022-10-14T08:28:28.113Z,100634.38
2022-10-14T08:30:54.718Z,100643.25
2022-10-14T08:33:21.513Z,100645.00
2022-10-14T08:35:53.002Z,100644.06
2022-10-14T08:38:25.106Z,100640.50
2022-10-14T08:41:01.094Z,100624.53
2022-10-14T08:43:33.872Z,100630.75
2022-10-14T08:46:07.784Z,100628.06
2022-10-14T08:48:35.309Z,100624.50
2022-10-14T08:51:07.321Z,100638.69
2022-10-14T08:53:56.705Z,100622.56
2022-10-14T08:56:24.518Z,100622.56
2022-10-14T08:58:52.329Z,100618.16
2022-10-14T09:01:29.013Z,100614.50
2022-10-14T09:04:03.888Z,100621.56
2022-10-14T09:06:33.673Z,100614.50
2022-10-14T09:09:09.437Z,100609.94
2022-10-14T09:11:43.192Z,100622.34
2022-10-14T09:14:15.549Z,100619.88
2022-10-14T09:16:42.475Z,100609.94
2022-10-14T09:19:14.431Z,100600.31
2022-10-14T09:21:53.616Z,100603.81
2022-10-14T09:24:27.458Z,100605.59
2022-10-14T09:29:42.952Z,100603.72
2022-10-14T09:32:13.430Z,100598.44
2022-10-14T09:34:45.205Z,100600.91
2022-10-14T09:37:36.425Z,100595.63
2022-10-14T09:40:11.367Z,100605.44
2022-10-14T09:43:02.035Z,100602.59
2022-10-14T09:45:38.867Z,100585.69
2022-10-14T09:48:08.722Z,100590.28
2022-10-14T09:50:40.621Z,100594.63
2022-10-14T09:53:34.717Z,100594.72
2022-10-14T09:56:04.272Z,100594.88
2022-10-14T09:58:55.260Z,100593.81
2022-10-14T10:01:24.605Z,100583.97
2022-10-14T10:03:52.504Z,100580.47
2022-10-14T10:06:22.759Z,100575.03
2022-10-14T10:08:55.716Z,100575.22
2022-10-14T10:11:39.093Z,100577.84
2022-10-14T10:14:24.501Z,100576.19
2022-10-14T10:17:11.184Z,100567.13
2022-10-14T10:19:43.280Z,100561.75
2022-10-14T10:22:26.998Z,100571.78
2022-10-14T10:25:06.142Z,100564.59
2022-10-14T10:27:35.639Z,100568.03
2022-10-14T10:30:30.195Z,100566.34
2022-10-14T10:33:20.320Z,100559.13
2022-10-14T10:39:17.572Z,100559.13
2022-10-14T10:42:09.352Z,100548.41
2022-10-14T10:44:59.748Z,100547.41
2022-10-14T10:47:53.372Z,100540.34
2022-10-14T10:50:31.969Z,100536.81
2022-10-14T10:53:19.917Z,100533.34
2022-10-14T10:56:11.376Z,100534.16
2022-10-14T10:59:08.943Z,100529.63
2022-10-14T11:01:41.984Z,100527.81
2022-10-14T11:04:25.871Z,100524.22
2022-10-14T11:07:29.606Z,100526.19
2022-10-14T11:10:35.393Z,100525.94
2022-10-14T11:13:29.317Z,100522.47
2022-10-14T11:16:06.752Z,100521.72
2022-10-14T11:19:01.240Z,100515.47
2022-10-14T11:21:34.859Z,100526.09
2022-10-14T11:24:26.848Z,100517.28
2022-10-14T11:27:05.947Z,100518.09
2022-10-14T11:30:03.296Z,100516.69
2022-10-14T11:32:59.130Z,100506.94
2022-10-14T11:35:50.799Z,100497.13
2022-10-14T11:38:54.643Z,100496.25
2022-10-14T11:41:32.366Z,100497.03
2022-10-14T11:44:05.687Z,100487.13
2022-10-14T11:46:38.209Z,100484.47
2022-10-14T11:49:28.179Z,100479.09
2022-10-14T11:52:03.084Z,100484.41
2022-10-14T11:54:51.200Z,100477.28
2022-10-14T11:57:37.092Z,100472.69
2022-10-14T12:00:22.745Z,100471.00
2022-10-14T12:03:12.150Z,100471.69
2022-10-14T12:05:59.383Z,100471.50
2022-10-14T12:08:33.245Z,100466.09
2022-10-14T12:11:20.342Z,100471.38
2022-10-14T12:13:54.732Z,100465.13
2022-10-14T12:16:26.034Z,100455.41
2022-10-14T12:18:56.334Z,100458.88
2022-10-14T12:21:33.537Z,100456.41
2022-10-14T12:24:07.993Z,100453.75
2022-10-14T12:26:52.817Z,100442.16
2022-10-14T12:29:24.915Z,100434.75
2022-10-14T12:32:23.765Z,100438.38
2022-10-14T12:34:57.325Z,100440.38
2022-10-14T12:37:27.276Z,100431.34
2022-10-14T12:40:06.880Z,100428.94
2022-10-14T12:42:57.803Z,100419.69
2022-10-14T12:45:29.526Z,100424.34
2022-10-14T12:48:19.281Z,100421.69
2022-10-14T12:50:50.383Z,100420.06
2022-10-14T12:53:24.640Z,100416.56
2022-10-14T12:55:54.428Z,100408.59
2022-10-14T12:58:27.667Z,100406.69
2022-10-14T13:00:57.043Z,100398.44
2022-10-14T13:03:27.393Z,100404.75
2022-10-14T13:06:25.747Z,100396.94
2022-10-14T13:09:10.870Z,100384.50
2022-10-14T13:11:45.062Z,100385.50
2022-10-14T13:14:27.138Z,100382.88
2022-10-14T13:16:53.672Z,100385.47
2022-10-14T13:19:32.600Z,100379.00
2022-10-14T13:22:31.485Z,100378.16
2022-10-14T13:25:27.355Z,100367.66
2022-10-14T13:28:21.421Z,100372.84
2022-10-14T13:31:16.063Z,100363.13
2022-10-14T13:33:49.946Z,100359.63
2022-10-14T13:36:21.273Z,100358.72
2022-10-14T13:38:54.320Z,100360.41
2022-10-14T13:41:30.744Z,100357.94
2022-10-14T13:43:59.270Z,100364.25
2022-10-14T13:46:41.761Z,100360.66
2022-10-14T13:49:13.671Z,100354.53
2022-10-14T13:51:56.591Z,100356.47
2022-10-14T13:54:25.451Z,100347.41
2022-10-14T14:02:48.094Z,100357.28
2022-10-14T14:05:25.310Z,100355.44
2022-10-14T14:10:51.583Z,100345.63
2022-10-14T14:13:25.177Z,100351.03
2022-10-14T14:15:53.670Z,100348.41
2022-10-14T14:19:03.961Z,100338.66
2022-10-14T14:21:34.197Z,100352.09
2022-10-14T14:24:01.704Z,100341.44
2022-10-14T14:26:35.847Z,100341.44
2022-10-14T14:29:06.347Z,100335.16
2022-10-14T14:32:01.501Z,100325.44
2022-10-14T14:34:21.776Z,100319.31
2022-10-14T14:36:57.949Z,100322.81
2022-10-14T14:39:33.574Z,100320.03
2022-10-14T14:42:00.855Z,100327.09
2022-10-14T14:44:29.742Z,100323.56
2022-10-14T14:47:01.649Z,100327.00
2022-10-14T14:49:30.818Z,100329.88
2022-10-14T14:51:59.562Z,100321.81
2022-10-14T14:54:27.289Z,100311.91
2022-10-14T14:56:59.824Z,100311.72
2022-10-14T14:59:30.438Z,100305.63
2022-10-14T15:04:32.688Z,100303.91
2022-10-14T15:07:06.144Z,100298.66
2022-10-14T15:09:44.100Z,100305.03
2022-10-14T15:12:17.718Z,100305.91
2022-10-14T15:14:54.342Z,100304.09
2022-10-14T15:17:45.997Z,100303.13
2022-10-14T15:20:33.998Z,100303.25
2022-10-14T15:23:00.939Z,100297.91
2022-10-14T15:25:30.790Z,100294.25
2022-10-14T15:28:01.872Z,100298.75
2022-10-14T15:30:40.690Z,100286.22
2022-10-14T15:33:21.752Z,100284.41
2022-10-14T15:35:59.315Z,100271.00
2022-10-14T15:38:26.764Z,100275.41
2022-10-14T15:40:53.635Z,100274.56
2022-10-14T15:43:26.681Z,100275.34
2022-10-14T15:46:16.373Z,100277.09
2022-10-14T15:48:47.627Z,100268.16
2022-10-14T15:51:17.246Z,100272.66
2022-10-14T15:53:43.818Z,100267.34
2022-10-14T15:56:10.463Z,100267.19
2022-10-14T15:58:37.351Z,100270.00
2022-10-14T16:01:04.744Z,100266.50
2022-10-14T16:03:35.851Z,100270.84
2022-10-14T16:06:09.993Z,100262.69
2022-10-14T16:08:38.931Z,100259.16
2022-10-14T16:11:22.072Z,100258.34
2022-10-14T16:13:48.698Z,100268.09
2022-10-14T16:16:19.343Z,100264.53
2022-10-14T16:18:46.811Z,100268.88
2022-10-14T16:21:16.321Z,100269.31
2022-10-14T16:23:46.230Z,100272.94
2022-10-14T16:26:14.076Z,100267.66
2022-10-14T16:28:40.740Z,100271.84
2022-10-14T16:31:11.693Z,100267.41
2022-10-14T16:33:40.465Z,100261.03
2022-10-14T16:36:14.223Z,100262.63
2022-10-14T16:38:40.882Z,100252.16
2022-10-14T16:41:13.039Z,100260.19
2022-10-14T16:43:39.803Z,100260.31
2022-10-14T16:46:13.158Z,100255.81
2022-10-14T16:49:00.152Z,100256.72
2022-10-14T16:51:26.869Z,100259.53
2022-10-14T16:53:53.616Z,100257.78
2022-10-14T16:56:58.496Z,100265.78
2022-10-14T16:59:25.873Z,100256.81
2022-10-14T17:01:53.426Z,100252.44
2022-10-14T17:04:20.660Z,100262.19
2022-10-14T17:06:52.183Z,100262.25
2022-10-14T17:09:19.265Z,100271.19
2022-10-14T17:11:47.423Z,100274.75
2022-10-14T17:14:16.719Z,100271.25
2022-10-14T17:16:43.479Z,100268.56
2022-10-14T17:19:11.334Z,100265.97
2022-10-14T17:21:39.212Z,100271.16
2022-10-14T17:24:07.262Z,100272.94
2022-10-14T17:26:46.295Z,100261.38
2022-10-14T17:29:13.004Z,100260.38
2022-10-14T17:31:39.721Z,100255.09
2022-10-14T17:34:08.538Z,100258.69
2022-10-14T17:36:35.190Z,100265.00
2022-10-14T17:39:01.829Z,100267.63
2022-10-14T17:41:29.632Z,100268.38
2022-10-14T17:43:57.846Z,100257.06
2022-10-14T17:46:26.160Z,100245.47
2022-10-14T17:48:54.438Z,100243.78
2022-10-14T17:51:45.110Z,100255.34
2022-10-14T17:54:14.089Z,100246.47
2022-10-14T17:56:41.096Z,100251.72
2022-10-14T17:59:10.801Z,100249.91
2022-10-14T18:02:00.881Z,100253.47
2022-10-14T18:04:24.315Z,100249.06
2022-10-14T18:06:51.142Z,100250.75
2022-10-14T18:09:17.980Z,100246.34
2022-10-14T18:14:34.047Z,100264.31
2022-10-14T18:17:07.406Z,100264.28
2022-10-14T18:19:51.212Z,100270.19
2022-10-14T18:22:19.113Z,100277.72
2022-10-14T18:24:46.489Z,100261.59
2022-10-14T18:27:13.216Z,100262.81
2022-10-14T18:29:40.170Z,100256.69
2022-10-14T18:32:06.765Z,100261.03
2022-10-14T18:34:33.687Z,100248.69
2022-10-14T18:37:00.339Z,100251.16
2022-10-14T18:39:29.823Z,100252.97
2022-10-14T18:41:56.419Z,100257.50
2022-10-14T18:44:23.011Z,100252.31
2022-10-14T18:46:49.614Z,100258.41
2022-10-14T18:49:16.276Z,100253.03
2022-10-14T18:51:43.406Z,100245.81
2022-10-14T18:54:18.586Z,100244.84
2022-10-14T18:56:45.216Z,100229.72
2022-10-14T18:59:18.139Z,100229.66
2022-10-14T19:01:46.111Z,100225.38
2022-10-14T19:04:14.907Z,100231.69
2022-10-14T19:06:44.917Z,100229.75
2022-10-14T19:09:12.716Z,100239.75
2022-10-14T19:11:39.643Z,100235.16
2022-10-14T19:14:06.329Z,100233.44
2022-10-14T19:16:36.888Z,100237.97
2022-10-14T19:19:11.261Z,100229.09
2022-10-14T19:21:38.840Z,100221.81
2022-10-14T19:24:06.963Z,100228.88
2022-10-14T19:26:35.888Z,100240.34
2022-10-14T19:29:06.505Z,100236.75
2022-10-14T19:31:36.154Z,100231.59
2022-10-14T19:34:05.341Z,100234.16
2022-10-14T19:37:06.369Z,100234.31
2022-10-14T19:39:35.813Z,100224.47
2022-10-14T19:42:02.578Z,100217.28
2022-10-14T19:47:03.783Z,100219.22
2022-10-14T19:49:30.434Z,100216.53
2022-10-14T19:51:57.007Z,100203.22
2022-10-14T19:54:23.586Z,100196.25
2022-10-14T19:56:53.306Z,100197.09
2022-10-14T19:59:25.331Z,100212.19
2022-10-14T20:01:52.007Z,100205.03
2022-10-14T20:04:25.158Z,100202.25
2022-10-14T20:06:54.148Z,100200.41
2022-10-14T20:09:20.795Z,100195.09
2022-10-14T20:11:47.394Z,100191.53
2022-10-14T20:14:14.495Z,100201.91
2022-10-14T20:16:41.205Z,100199.53
2022-10-14T20:19:08.078Z,100188.00
2022-10-14T20:21:34.729Z,100184.63
2022-10-14T20:24:01.473Z,100185.53
2022-10-14T20:26:28.309Z,100183.66
2022-10-14T20:28:55.026Z,100180.91
2022-10-14T20:31:24.015Z,100182.88
2022-10-14T20:33:51.017Z,100177.41
2022-10-14T20:36:19.839Z,100180.19
2022-10-14T20:38:49.598Z,100180.94
2022-10-14T20:41:24.882Z,100182.59
2022-10-14T20:43:52.888Z,100187.91
2022-10-14T20:46:21.937Z,100186.88
2022-10-14T20:48:48.714Z,100182.75
2022-10-14T20:51:18.035Z,100182.66
2022-10-14T20:53:44.782Z,100181.91
2022-10-14T20:56:13.050Z,100179.19
2022-10-14T20:58:39.981Z,100180.13
2022-10-14T21:01:16.452Z,100171.75
2022-10-14T21:03:52.109Z,100167.44
2022-10-14T21:06:22.337Z,100168.69
2022-10-14T21:08:50.714Z,100172.91
2022-10-14T21:11:20.250Z,100172.06
2022-10-14T21:13:48.449Z,100167.78
2022-10-14T21:16:21.539Z,100174.06
2022-10-14T21:18:53.571Z,100173.22
2022-10-14T21:21:23.984Z,100179.41
2022-10-14T21:23:50.800Z,100181.38
2022-10-14T21:26:17.476Z,100177.69
2022-10-14T21:28:44.323Z,100168.75
2022-10-14T21:31:21.345Z,100168.81
2022-10-14T21:34:01.297Z,100174.19
2022-10-14T21:36:31.990Z,100169.97
2022-10-14T21:39:04.317Z,100166.47
2022-10-14T21:41:31.276Z,100174.41
2022-10-14T21:43:59.213Z,100176.97
2022-10-14T21:46:26.424Z,100164.50
2022-10-14T21:49:03.696Z,100173.34
2022-10-14T21:51:33.171Z,100179.66
2022-10-14T21:56:44.959Z,100172.81
2022-10-14T21:59:12.399Z,100171.75
2022-10-14T22:01:46.634Z,100167.38
2022-10-14T22:04:13.412Z,100166.44
2022-10-14T22:06:47.072Z,100170.78
2022-10-14T22:09:13.663Z,100168.94
2022-10-14T22:11:41.261Z,100167.16
2022-10-14T22:14:14.023Z,100160.03
2022-10-14T22:16:41.142Z,100172.50
2022-10-14T22:19:09.790Z,100180.53
2022-10-14T22:21:38.302Z,100172.50
2022-10-14T22:24:13.021Z,100180.47
2022-10-14T22:26:47.439Z,100177.84
2022-10-14T22:29:15.338Z,100168.03
2022-10-14T22:31:45.497Z,100166.19
2022-10-14T22:34:16.693Z,100165.34
2022-10-14T22:36:43.974Z,100168.91
2022-10-14T22:39:13.517Z,100163.50
2022-10-14T22:41:55.620Z,100166.19
2022-10-14T22:44:25.339Z,100172.50
2022-10-14T22:46:54.197Z,100170.72
2022-10-14T22:49:20.920Z,100164.38
2022-10-14T22:51:47.587Z,100158.16
2022-10-14T22:54:16.909Z,100163.41
2022-10-14T22:56:43.512Z,100159.00
2022-10-14T22:59:11.475Z,100148.28
2022-10-14T23:01:39.152Z,100151.91
2022-10-14T23:04:08.431Z,100150.09
2022-10-14T23:06:35.432Z,100150.88
2022-10-14T23:09:02.325Z,100145.41
2022-10-14T23:11:30.967Z,100146.44
2022-10-14T23:13:59.197Z,100152.81
2022-10-14T23:16:28.640Z,100155.41
2022-10-14T23:18:55.339Z,100149.13
2022-10-14T23:21:29.604Z,100148.50
2022-10-14T23:23:58.281Z,100154.00
2022-10-14T23:26:26.799Z,100160.34
2022-10-14T23:28:57.970Z,100150.44
2022-10-14T23:31:29.690Z,100153.09
2022-10-14T23:34:01.796Z,100143.41
2022-10-14T23:36:28.899Z,100147.88
2022-10-14T23:38:55.706Z,100139.72
2022-10-14T23:41:23.022Z,100140.53
2022-10-14T23:43:54.009Z,100139.72
2022-10-14T23:46:20.887Z,100144.25
2022-10-14T23:49:01.185Z,100150.63
2022-10-14T23:51:38.811Z,100143.59
2022-10-14T23:54:05.712Z,100145.47
2022-10-14T23:56:34.067Z,100148.94
2022-10-14T23:59:00.642Z,100141.00
